Time;durP1;ratioP1;P1;durP2;ratioP2;P2;SDS_P1;SDS_P2;PMS_P1;PMS_P2;Temp;Humidity;BMP_temperature;BMP_pressure;BME280_temperature;BME280_humidity;BME280_pressure;Samples;Min_cycle;Max_cycle;Signal;HPM_P1;HPM_P2
2022/10/07 00:00:45;;;;;;;2.70;1.80;;;18.90;47.30;;;;;;5002050;28;20210;-69
2022/10/07 00:03:11;;;;;;;2.53;1.77;;;18.80;47.50;;;;;;5014037;28;20460;-69
2022/10/07 00:05:36;;;;;;;2.10;1.70;;;18.90;47.10;;;;;;5014328;28;20417;-69
2022/10/07 00:08:02;;;;;;;1.80;1.80;;;18.80;47.60;;;;;;5014428;28;20170;-70
2022/10/07 00:10:28;;;;;;;5.93;2.57;;;18.70;48.70;;;;;;5013032;28;20206;-71
2022/10/07 00:12:54;;;;;;;3.17;1.87;;;18.70;48.70;;;;;;5013735;28;20267;-69
2022/10/07 00:15:20;;;;;;;1.70;1.63;;;18.60;48.50;;;;;;5014038;28;20510;-69
2022/10/07 00:17:46;;;;;;;4.03;2.40;;;18.80;48.50;;;;;;5014003;28;20204;-69
2022/10/07 00:20:11;;;;;;;1.83;1.73;;;18.80;48.30;;;;;;5014379;28;20426;-70
2022/10/07 00:22:37;;;;;;;2.17;1.80;;;18.90;47.60;;;;;;5013363;28;20559;-70
2022/10/07 00:25:03;;;;;;;1.83;1.70;;;18.80;48.30;;;;;;5014014;28;20208;-70
2022/10/07 00:27:28;;;;;;;2.27;1.80;;;18.70;48.10;;;;;;5013686;28;20224;-70
2022/10/07 00:29:54;;;;;;;1.70;1.47;;;18.70;47.90;;;;;;5014070;28;20185;-70
2022/10/07 00:32:19;;;;;;;1.60;1.60;;;18.70;47.70;;;;;;5013371;28;20211;-69
2022/10/07 00:34:45;;;;;;;2.53;1.53;;;18.50;47.90;;;;;;5013788;28;20203;-69
2022/10/07 00:37:10;;;;;;;2.50;1.70;;;18.30;49.00;;;;;;5013968;28;20683;-70
2022/10/07 00:39:36;;;;;;;2.50;2.27;;;18.40;49.10;;;;;;5013938;28;20199;-71
2022/10/07 00:42:02;;;;;;;1.70;1.60;;;18.70;48.60;;;;;;5013001;28;20213;-70
2022/10/07 00:44:30;;;;;;;1.50;1.50;;;18.80;47.00;;;;;;5013794;28;20215;-70
2022/10/07 00:46:58;;;;;;;2.07;1.80;;;18.50;47.80;;;;;;5013552;28;20224;-69
2022/10/07 00:49:29;;;;;;;2.20;2.00;;;18.60;48.20;;;;;;5013544;28;20415;-70
2022/10/07 00:51:55;;;;;;;1.83;1.73;;;18.60;48.90;;;;;;5012987;28;20469;-71
2022/10/07 00:54:21;;;;;;;1.87;1.70;;;18.60;48.50;;;;;;5013462;28;20408;-70
2022/10/07 00:56:48;;;;;;;2.50;2.03;;;18.50;48.70;;;;;;5013316;28;20438;-70
2022/10/07 00:59:15;;;;;;;2.37;2.20;;;18.50;48.60;;;;;;5013989;28;20177;-69
2022/10/07 01:01:41;;;;;;;4.33;2.50;;;18.60;48.00;;;;;;5013282;28;20420;-69
2022/10/07 01:04:12;;;;;;;2.20;1.93;;;18.80;47.00;;;;;;5013603;28;20458;-70
2022/10/07 01:06:39;;;;;;;1.93;1.80;;;18.70;48.20;;;;;;5013208;28;20483;-70
2022/10/07 01:09:07;;;;;;;2.10;1.87;;;18.80;48.20;;;;;;5013493;28;20517;-70
2022/10/07 01:11:51;;;;;;;2.17;1.77;;;18.70;48.60;;;;;;5012692;28;20414;-69
2022/10/07 01:14:34;;;;;;;1.60;1.40;;;18.60;48.40;;;;;;5012679;28;20401;-69
2022/10/07 01:17:18;;;;;;;2.90;2.03;;;18.80;47.40;;;;;;5013018;28;20988;-70
2022/10/07 01:19:47;;;;;;;5.13;2.60;;;18.80;47.00;;;;;;5013088;28;20903;-69
2022/10/07 01:22:15;;;;;;;1.93;1.60;;;18.70;47.30;;;;;;5012479;28;20481;-69
2022/10/07 01:24:59;;;;;;;1.80;1.70;;;18.90;46.70;;;;;;5012547;28;20495;-70
2022/10/07 01:27:26;;;;;;;2.20;2.00;;;18.80;47.50;;;;;;5012833;28;20459;-69
2022/10/07 01:30:05;;;;;;;2.23;2.13;;;18.70;48.00;;;;;;5012873;28;20412;-70
2022/10/07 01:32:53;;;;;;;3.13;2.13;;;18.80;47.20;;;;;;5012253;28;20464;-70
2022/10/07 01:35:24;;;;;;;4.07;2.30;;;18.60;48.50;;;;;;5012726;28;20527;-69
2022/10/07 01:37:54;;;;;;;2.07;1.73;;;18.60;49.10;;;;;;5012752;28;20428;-69
2022/10/07 01:40:27;;;;;;;3.20;1.87;;;18.70;48.10;;;;;;5012767;28;20503;-70
2022/10/07 01:42:55;;;;;;;2.57;2.07;;;18.90;47.30;;;;;;5012099;28;20470;-70
2022/10/07 01:45:23;;;;;;;2.60;1.80;;;18.70;47.30;;;;;;5012491;28;20459;-69
2022/10/07 01:47:50;;;;;;;1.60;1.60;;;18.70;48.20;;;;;;5012413;28;20432;-70
2022/10/07 01:50:19;;;;;;;1.60;1.33;;;18.60;48.40;;;;;;5012481;28;20416;-70
2022/10/07 01:52:47;;;;;;;2.27;1.73;;;18.60;48.60;;;;;;5012028;28;20422;-70
2022/10/07 01:55:27;;;;;;;2.73;1.70;;;18.50;49.10;;;;;;5012438;28;20419;-69
2022/10/07 01:58:07;;;;;;;3.50;2.20;;;18.50;48.90;;;;;;5009966;28;20444;-69
2022/10/07 02:00:41;;;;;;;2.60;1.77;;;18.40;48.90;;;;;;5012061;28;20448;-70
2022/10/07 02:03:37;;;;;;;1.87;1.77;;;18.40;49.30;;;;;;5011597;28;20591;-70
2022/10/07 02:06:11;;;;;;;2.57;1.90;;;18.30;49.20;;;;;;5012332;28;20428;-70
2022/10/07 02:08:50;;;;;;;1.97;1.87;;;18.30;49.70;;;;;;5012441;28;20853;-69
2022/10/07 02:11:30;;;;;;;2.23;1.67;;;18.40;48.70;;;;;;5013151;28;20420;-69
2022/10/07 02:14:13;;;;;;;1.73;1.70;;;18.30;49.20;;;;;;5013330;28;20410;-69
2022/10/07 02:16:45;;;;;;;3.20;2.03;;;18.40;49.30;;;;;;5013398;28;20456;-70
2022/10/07 02:19:16;;;;;;;2.00;1.90;;;18.40;49.00;;;;;;5013702;28;20806;-69
2022/10/07 02:21:44;;;;;;;1.80;1.63;;;18.50;49.20;;;;;;5013334;28;20416;-69
2022/10/07 02:24:11;;;;;;;2.33;2.03;;;18.40;49.00;;;;;;5013295;28;20481;-69
2022/10/07 02:26:39;;;;;;;1.60;1.40;;;18.50;48.50;;;;;;5012983;28;20442;-70
2022/10/07 02:29:07;;;;;;;2.37;2.17;;;18.60;47.40;;;;;;5012946;28;20835;-69
2022/10/07 02:31:35;;;;;;;2.40;1.97;;;18.70;47.00;;;;;;5013254;28;20475;-70
2022/10/07 02:34:03;;;;;;;2.80;2.53;;;18.50;47.70;;;;;;5012859;28;20477;-69
2022/10/07 02:36:36;;;;;;;1.80;1.80;;;18.50;47.60;;;;;;5013042;28;20561;-69
2022/10/07 02:39:02;;;;;;;4.03;1.97;;;18.50;47.70;;;;;;5013206;28;20908;-69
2022/10/07 02:41:40;;;;;;;2.33;1.83;;;18.40;48.00;;;;;;5011796;28;20430;-69
2022/10/07 02:44:24;;;;;;;3.17;2.27;;;18.30;49.00;;;;;;5011787;28;20468;-69
2022/10/07 02:47:15;;;;;;;2.60;1.87;;;18.40;48.60;;;;;;5011663;28;20420;-70
2022/10/07 02:49:44;;;;;;;2.30;1.70;;;18.30;49.20;;;;;;5010976;28;20400;-69
2022/10/07 02:52:18;;;;;;;2.63;2.03;;;18.30;48.70;;;;;;5011278;28;20443;-70
2022/10/07 02:54:55;;;;;;;1.97;1.77;;;18.30;49.00;;;;;;5011240;28;20431;-70
2022/10/07 02:57:23;;;;;;;2.80;2.17;;;18.30;49.40;;;;;;5011686;28;20428;-70
2022/10/07 02:59:51;;;;;;;1.93;1.70;;;18.40;47.80;;;;;;5011452;28;20414;-70
2022/10/07 03:02:24;;;;;;;3.87;1.90;;;18.30;47.60;;;;;;5011284;28;20422;-69
2022/10/07 03:04:49;;;;;;;2.57;2.13;;;18.20;48.10;;;;;;5011209;28;20469;-69
2022/10/07 03:07:15;;;;;;;2.17;1.67;;;18.20;48.00;;;;;;5011968;28;20975;-70
2022/10/07 03:09:42;;;;;;;2.57;1.93;;;18.10;48.60;;;;;;5011432;28;20289;-70
2022/10/07 03:12:07;;;;;;;2.13;1.67;;;18.00;48.90;;;;;;5010917;28;20401;-69
2022/10/07 03:14:34;;;;;;;4.03;2.30;;;18.00;48.50;;;;;;5011213;28;20427;-70
2022/10/07 03:17:00;;;;;;;2.50;1.93;;;17.90;49.20;;;;;;5010992;28;20210;-70
2022/10/07 03:19:26;;;;;;;2.13;1.77;;;18.00;49.10;;;;;;5011584;28;20419;-70
2022/10/07 03:21:53;;;;;;;3.47;2.33;;;18.00;48.90;;;;;;5010931;28;20954;-69
2022/10/07 03:24:18;;;;;;;1.50;1.40;;;17.90;49.00;;;;;;5011221;28;20216;-71
2022/10/07 03:26:44;;;;;;;1.93;1.80;;;17.90;49.40;;;;;;5010868;28;20432;-69
2022/10/07 03:29:10;;;;;;;3.13;1.90;;;17.90;50.10;;;;;;5011476;28;20178;-69
2022/10/07 03:31:35;;;;;;;2.63;2.10;;;17.90;49.50;;;;;;5010918;28;20169;-69
2022/10/07 03:34:01;;;;;;;2.33;1.73;;;17.80;48.90;;;;;;5010994;28;20231;-69
2022/10/07 03:36:27;;;;;;;3.40;1.87;;;17.60;49.60;;;;;;5012610;28;20252;-70
2022/10/07 03:38:54;;;;;;;10.30;2.40;;;17.50;50.00;;;;;;5015161;28;20177;-70
2022/10/07 03:41:21;;;;;;;2.20;2.10;;;17.60;49.70;;;;;;5014256;28;20429;-70
2022/10/07 03:43:46;;;;;;;1.60;1.60;;;17.50;49.20;;;;;;5014568;28;20514;-70
2022/10/07 03:46:12;;;;;;;2.00;1.90;;;17.40;49.30;;;;;;5014994;28;20862;-69
2022/10/07 03:48:39;;;;;;;2.90;1.73;;;17.40;49.90;;;;;;5015095;28;20272;-69
2022/10/07 03:51:04;;;;;;;1.60;1.60;;;17.40;49.80;;;;;;5014834;28;20416;-70
2022/10/07 03:53:30;;;;;;;1.63;1.60;;;17.40;50.00;;;;;;5014420;28;20541;-70
2022/10/07 03:55:56;;;;;;;2.30;1.80;;;17.30;49.60;;;;;;5014548;28;20267;-70
2022/10/07 03:58:22;;;;;;;1.77;1.57;;;17.30;50.00;;;;;;5014851;28;20182;-69
2022/10/07 04:00:48;;;;;;;1.60;1.43;;;17.20;49.30;;;;;;5014639;28;20883;-69
2022/10/07 04:03:15;;;;;;;2.53;1.70;;;17.20;49.10;;;;;;5014107;28;20204;-69
2022/10/07 04:05:41;;;;;;;1.70;1.60;;;17.10;49.70;;;;;;5013112;28;20246;-70
2022/10/07 04:08:09;;;;;;;6.27;2.40;;;17.20;49.70;;;;;;5014995;28;20503;-70
2022/10/07 04:10:35;;;;;;;1.70;1.63;;;17.10;49.80;;;;;;5014417;28;20404;-69
2022/10/07 04:13:00;;;;;;;2.33;1.87;;;17.10;49.50;;;;;;5013666;28;20485;-69
2022/10/07 04:15:26;;;;;;;2.30;1.57;;;17.10;49.20;;;;;;5014098;28;20644;-69
2022/10/07 04:17:57;;;;;;;1.50;1.43;;;17.00;48.90;;;;;;5014297;28;20209;-69
2022/10/07 04:20:23;;;;;;;2.40;2.00;;;16.90;49.40;;;;;;5014528;28;20208;-69
2022/10/07 04:22:49;;;;;;;1.73;1.70;;;17.00;49.70;;;;;;5013436;28;20464;-69
2022/10/07 04:25:33;;;;;;;2.40;1.77;;;17.20;49.40;;;;;;5013791;28;20408;-69
2022/10/07 04:28:06;;;;;;;2.57;2.00;;;17.20;48.60;;;;;;5014195;28;20175;-69
2022/10/07 04:30:36;;;;;;;2.00;1.50;;;17.00;48.70;;;;;;5014176;28;20398;-69
2022/10/07 04:33:03;;;;;;;2.17;1.67;;;16.80;49.60;;;;;;5013732;28;20861;-69
2022/10/07 04:35:29;;;;;;;2.50;1.80;;;16.80;49.30;;;;;;5013679;28;20419;-69
2022/10/07 04:37:55;;;;;;;2.20;1.57;;;16.70;49.70;;;;;;5013935;28;20416;-69
2022/10/07 04:40:22;;;;;;;3.40;1.70;;;16.70;50.20;;;;;;5014145;28;20446;-69
2022/10/07 04:45:34;;;;;;;2.43;1.90;;;16.80;48.50;;;;;;5013768;28;20387;-69
2022/10/07 04:48:00;;;;;;;1.90;1.50;;;16.90;48.10;;;;;;5012561;28;20420;-69
2022/10/07 04:50:26;;;;;;;1.63;1.60;;;16.90;47.70;;;;;;5012570;28;20587;-69
2022/10/07 04:52:52;;;;;;;1.90;1.70;;;16.70;48.40;;;;;;5012833;28;20447;-69
2022/10/07 04:55:18;;;;;;;2.17;1.63;;;16.70;48.70;;;;;;5013610;28;20469;-69
2022/10/07 04:57:43;;;;;;;1.50;1.40;;;16.60;49.20;;;;;;5013485;28;20671;-69
2022/10/07 05:00:10;;;;;;;2.23;1.73;;;16.50;49.10;;;;;;5013663;28;20188;-69
2022/10/07 05:02:36;;;;;;;2.20;2.00;;;16.40;49.20;;;;;;5012656;28;20184;-69
2022/10/07 05:05:02;;;;;;;1.93;1.77;;;16.40;49.90;;;;;;5013689;28;20460;-70
2022/10/07 05:07:28;;;;;;;9.27;2.43;;;16.50;50.40;;;;;;5013010;28;20961;-69
2022/10/07 05:09:53;;;;;;;1.87;1.70;;;16.40;49.50;;;;;;5013244;28;20409;-69
2022/10/07 05:12:19;;;;;;;1.83;1.60;;;16.30;49.90;;;;;;5012739;28;20205;-70
2022/10/07 05:14:45;;;;;;;2.90;1.73;;;16.40;49.10;;;;;;5013690;28;20524;-70
2022/10/07 05:17:12;;;;;;;2.53;1.93;;;16.30;50.40;;;;;;5013353;28;20238;-69
2022/10/07 05:19:38;;;;;;;2.97;2.47;;;16.30;49.60;;;;;;5011352;28;20417;-69
2022/10/07 05:22:04;;;;;;;4.10;2.27;;;16.30;49.70;;;;;;5011249;28;20524;-69
2022/10/07 05:24:29;;;;;;;2.93;2.23;;;16.40;48.90;;;;;;5011291;28;20201;-69
2022/10/07 05:26:55;;;;;;;4.63;2.47;;;16.40;49.20;;;;;;5011995;28;20671;-70
2022/10/07 05:29:21;;;;;;;1.50;1.50;;;16.40;48.70;;;;;;5011615;28;20209;-70
2022/10/07 05:31:48;;;;;;;3.10;1.83;;;16.20;49.00;;;;;;5010847;28;20551;-69
2022/10/07 05:34:14;;;;;;;2.17;2.00;;;16.10;49.40;;;;;;5011316;28;20636;-69
2022/10/07 05:36:41;;;;;;;3.67;2.60;;;16.10;49.20;;;;;;5011495;28;20551;-69
2022/10/07 05:39:07;;;;;;;3.30;2.10;;;16.20;49.70;;;;;;5012076;28;20417;-69
2022/10/07 05:41:33;;;;;;;3.17;2.10;;;16.30;49.10;;;;;;5011262;28;20913;-69
2022/10/07 05:44:00;;;;;;;2.23;1.73;;;16.40;49.20;;;;;;5011283;28;20723;-69
2022/10/07 05:46:26;;;;;;;17.17;1.93;;;16.30;49.70;;;;;;5011060;28;20232;-69
2022/10/07 05:48:53;;;;;;;2.53;1.87;;;16.40;48.80;;;;;;5011381;28;20417;-69
2022/10/07 05:51:20;;;;;;;2.83;2.03;;;16.20;50.30;;;;;;5010868;28;20414;-69
2022/10/07 05:53:46;;;;;;;1.60;1.60;;;16.20;50.30;;;;;;5010900;28;20429;-69
2022/10/07 05:56:20;;;;;;;1.90;1.40;;;16.20;50.00;;;;;;5011110;28;20445;-69
2022/10/07 05:58:46;;;;;;;2.33;2.00;;;16.20;50.00;;;;;;5008659;28;20453;-70
2022/10/07 06:01:18;;;;;;;1.50;1.37;;;16.40;49.30;;;;;;5010800;28;20441;-69
2022/10/07 06:03:49;;;;;;;2.00;1.70;;;16.30;49.90;;;;;;5010706;28;20461;-69
2022/10/07 06:06:14;;;;;;;2.47;2.10;;;15.80;53.50;;;;;;5010955;28;20435;-70
2022/10/07 06:08:40;;;;;;;4.53;2.40;;;15.80;54.00;;;;;;5010820;28;20494;-69
2022/10/07 06:13:52;;;;;;;7.20;1.93;;;15.70;54.60;;;;;;5008729;28;20197;-69
2022/10/07 06:16:18;;;;;;;4.53;2.70;;;16.00;54.10;;;;;;5008175;28;21015;-70
2022/10/07 06:18:44;;;;;;;6.07;2.37;;;16.20;52.90;;;;;;5010910;28;20415;-69
2022/10/07 06:21:11;;;;;;;2.37;1.70;;;16.60;51.10;;;;;;5010222;28;20230;-69
2022/10/07 06:23:37;;;;;;;2.50;1.93;;;16.50;51.40;;;;;;5010699;28;20932;-69
2022/10/07 06:26:06;;;;;;;2.03;1.90;;;16.30;51.60;;;;;;5010558;28;20454;-69
2022/10/07 06:28:33;;;;;;;7.07;2.20;;;16.10;52.70;;;;;;5010690;28;20418;-69
2022/10/07 06:31:06;;;;;;;2.67;1.80;;;16.30;52.50;;;;;;5007710;28;20416;-69
2022/10/07 06:33:32;;;;;;;3.87;2.43;;;15.70;54.10;;;;;;5010523;28;20924;-69
2022/10/07 06:36:04;;;;;;;4.10;2.43;;;15.80;55.80;;;;;;5010261;28;20519;-69
2022/10/07 06:38:29;;;;;;;2.70;2.33;;;16.00;54.70;;;;;;5010632;28;20285;-69
2022/10/07 06:41:00;;;;;;;3.77;2.33;;;16.30;53.70;;;;;;5010202;28;21022;-69
2022/10/07 06:43:26;;;;;;;1.80;1.53;;;16.40;52.20;;;;;;5010359;28;20230;-69
2022/10/07 06:45:52;;;;;;;3.83;2.17;;;16.70;51.50;;;;;;5010146;28;20451;-70
2022/10/07 06:48:18;;;;;;;2.30;2.00;;;16.70;51.50;;;;;;5010522;28;20413;-69
2022/10/07 06:50:53;;;;;;;2.07;1.90;;;16.80;51.70;;;;;;5010206;28;20571;-69
2022/10/07 06:53:20;;;;;;;3.23;2.17;;;16.90;51.30;;;;;;4991797;28;20656;-69
2022/10/07 06:55:45;;;;;;;1.80;1.70;;;16.50;52.30;;;;;;4991782;28;20423;-69
2022/10/07 06:58:11;;;;;;;2.50;1.90;;;17.00;52.90;;;;;;4992288;28;20420;-69
2022/10/07 07:00:37;;;;;;;2.63;1.80;;;16.90;52.00;;;;;;4992188;28;20180;-69
2022/10/07 07:03:03;;;;;;;3.30;1.50;;;16.90;50.50;;;;;;4992169;28;20866;-69
2022/10/07 07:05:36;;;;;;;3.30;2.40;;;16.30;53.70;;;;;;4991719;28;20402;-69
2022/10/07 07:08:02;;;;;;;1.93;1.70;;;16.60;54.30;;;;;;4992235;28;20347;-69
2022/10/07 07:10:27;;;;;;;2.90;2.13;;;16.50;53.40;;;;;;4991796;28;20844;-69
2022/10/07 07:12:54;;;;;;;3.17;2.27;;;17.00;52.10;;;;;;4995418;28;20600;-69
2022/10/07 07:15:20;;;;;;;2.47;2.10;;;16.90;51.00;;;;;;4995689;28;20186;-69
2022/10/07 07:17:46;;;;;;;2.63;2.13;;;17.10;50.90;;;;;;4995834;28;20436;-69
2022/10/07 07:20:13;;;;;;;3.13;2.33;;;17.30;51.30;;;;;;4995807;28;20777;-69
2022/10/07 07:22:39;;;;;;;4.90;2.23;;;17.40;51.00;;;;;;4995195;28;20834;-69
2022/10/07 07:25:05;;;;;;;8.90;2.73;;;17.40;51.00;;;;;;4995821;28;20436;-69
2022/10/07 07:27:31;;;;;;;6.60;3.10;;;17.50;50.80;;;;;;4995874;28;20484;-69
2022/10/07 07:29:57;;;;;;;3.60;2.27;;;17.70;49.50;;;;;;4995614;28;20823;-69
2022/10/07 07:32:23;;;;;;;2.30;2.10;;;17.40;51.40;;;;;;4994966;28;20173;-69
2022/10/07 07:34:49;;;;;;;2.60;1.83;;;17.50;49.80;;;;;;4994934;28;20412;-70
2022/10/07 07:37:16;;;;;;;2.03;1.80;;;17.70;49.60;;;;;;4995517;28;20483;-69
2022/10/07 07:39:43;;;;;;;3.97;3.03;;;17.80;50.00;;;;;;4995228;28;20189;-69
2022/10/07 07:42:09;;;;;;;3.00;2.53;;;17.90;49.60;;;;;;4994883;28;20439;-69
2022/10/07 07:44:36;;;;;;;1.90;1.70;;;17.90;49.20;;;;;;4995079;28;20470;-69
2022/10/07 07:47:02;;;;;;;2.97;2.23;;;17.90;49.80;;;;;;4994937;28;20664;-70
2022/10/07 07:49:30;;;;;;;3.73;1.90;;;18.00;48.90;;;;;;4995274;28;20491;-70
2022/10/07 07:51:57;;;;;;;3.10;2.47;;;18.20;47.50;;;;;;4994883;28;20417;-70
2022/10/07 07:54:26;;;;;;;3.80;2.50;;;18.40;46.60;;;;;;4994739;28;20409;-70
2022/10/07 07:56:56;;;;;;;2.37;2.23;;;18.30;46.80;;;;;;4995003;28;20440;-69
2022/10/07 07:59:22;;;;;;;6.70;2.80;;;18.40;47.30;;;;;;4995227;28;20765;-69
2022/10/07 08:01:48;;;;;;;2.07;1.80;;;18.60;46.10;;;;;;4994405;28;20409;-70
2022/10/07 08:04:14;;;;;;;3.37;2.50;;;18.60;45.30;;;;;;4994520;28;20458;-70
2022/10/07 08:06:40;;;;;;;2.40;1.80;;;18.70;46.30;;;;;;4994773;28;20333;-70
2022/10/07 08:09:06;;;;;;;3.30;2.30;;;18.50;45.30;;;;;;4995286;28;20504;-70
2022/10/07 08:11:31;;;;;;;2.33;1.90;;;17.90;48.00;;;;;;4994629;28;20496;-69
2022/10/07 08:13:58;;;;;;;6.90;2.60;;;18.00;48.00;;;;;;4994402;28;20837;-69
2022/10/07 08:16:26;;;;;;;3.20;1.93;;;18.30;46.80;;;;;;4994463;28;20210;-70
2022/10/07 08:18:53;;;;;;;1.70;1.50;;;18.50;46.00;;;;;;4994780;28;20419;-70
2022/10/07 08:21:22;;;;;;;2.97;2.60;;;18.50;45.80;;;;;;4994488;28;21028;-69
2022/10/07 08:23:51;;;;;;;2.60;2.10;;;18.50;45.90;;;;;;4993869;28;20890;-69
2022/10/07 08:26:16;;;;;;;5.30;2.03;;;18.60;45.40;;;;;;4994356;28;20464;-70
2022/10/07 08:28:42;;;;;;;3.00;2.27;;;18.60;45.80;;;;;;4994405;28;20437;-70
2022/10/07 08:31:11;;;;;;;2.80;1.77;;;18.70;45.70;;;;;;4994242;28;20698;-69
2022/10/07 08:33:40;;;;;;;9.60;2.83;;;18.60;45.40;;;;;;4994102;28;20210;-70
2022/10/07 08:36:07;;;;;;;2.53;2.17;;;18.90;44.70;;;;;;4994392;28;20508;-69
2022/10/07 08:38:35;;;;;;;1.90;1.77;;;18.50;46.80;;;;;;4994345;28;20934;-69
2022/10/07 08:41:22;;;;;;;3.70;2.40;;;19.00;44.10;;;;;;4994227;28;20437;-70
2022/10/07 08:43:49;;;;;;;1.50;1.50;;;18.40;46.00;;;;;;4993939;28;20848;-70
2022/10/07 08:46:27;;;;;;;2.03;1.77;;;18.40;47.00;;;;;;4994326;28;20763;-71
2022/10/07 08:49:02;;;;;;;3.03;2.40;;;18.90;45.00;;;;;;4994289;28;20422;-71
2022/10/07 08:51:52;;;;;;;2.80;2.00;;;18.70;45.30;;;;;;4993855;28;20411;-70
2022/10/07 08:54:26;;;;;;;2.33;2.13;;;18.60;46.40;;;;;;4994124;28;20725;-70
2022/10/07 08:56:54;;;;;;;2.53;1.97;;;18.50;45.90;;;;;;4994681;28;20430;-70
2022/10/07 08:59:27;;;;;;;3.63;2.57;;;18.90;45.80;;;;;;4994284;28;20477;-70
2022/10/07 09:01:55;;;;;;;1.90;1.87;;;19.50;43.60;;;;;;4993261;28;20840;-70
2022/10/07 09:04:36;;;;;;;2.77;2.00;;;19.40;43.30;;;;;;4993515;28;20507;-70
2022/10/07 09:07:15;;;;;;;3.97;1.90;;;19.20;44.30;;;;;;4993927;28;20430;-70
2022/10/07 09:09:52;;;;;;;1.90;1.80;;;19.50;43.20;;;;;;4993865;28;20399;-70
2022/10/07 09:12:47;;;;;;;2.17;2.00;;;19.70;44.20;;;;;;4993087;28;20502;-70
2022/10/07 09:15:22;;;;;;;2.60;2.30;;;19.70;43.90;;;;;;4987053;28;20427;-70
2022/10/07 09:18:02;;;;;;;2.00;1.77;;;19.90;43.90;;;;;;4993637;28;20493;-70
2022/10/07 09:20:38;;;;;;;2.30;2.13;;;20.00;43.50;;;;;;4993657;28;20384;-70
2022/10/07 09:23:06;;;;;;;8.87;2.73;;;20.10;43.20;;;;;;4992924;28;20451;-70
2022/10/07 09:25:32;;;;;;;4.37;2.27;;;20.40;44.20;;;;;;4993467;28;20899;-70
2022/10/07 09:27:58;;;;;;;4.23;2.60;;;20.60;42.20;;;;;;4993532;28;20459;-70
2022/10/07 09:30:26;;;;;;;3.80;2.40;;;20.60;42.20;;;;;;4993553;28;20413;-70
2022/10/07 09:32:53;;;;;;;1.90;1.50;;;20.80;41.50;;;;;;4992852;28;20428;-70
2022/10/07 09:35:22;;;;;;;3.83;2.50;;;20.90;41.30;;;;;;4992549;28;20819;-71
2022/10/07 09:37:53;;;;;;;5.60;3.07;;;21.10;39.80;;;;;;4993425;28;20990;-70
2022/10/07 09:40:30;;;;;;;3.93;2.33;;;21.10;38.80;;;;;;4993304;28;20471;-70
2022/10/07 09:42:57;;;;;;;2.80;2.37;;;21.20;39.50;;;;;;4993018;28;20948;-70
2022/10/07 09:45:31;;;;;;;1.90;1.60;;;21.10;39.00;;;;;;4992853;28;20405;-70
2022/10/07 09:48:06;;;;;;;2.47;2.37;;;20.90;40.60;;;;;;4992949;28;20833;-70
2022/10/07 09:50:36;;;;;;;2.17;2.00;;;20.70;39.10;;;;;;4993624;28;20417;-70
2022/10/07 09:53:03;;;;;;;3.73;2.23;;;20.70;40.50;;;;;;4992976;28;20971;-71
2022/10/07 09:55:36;;;;;;;2.57;2.33;;;20.80;41.70;;;;;;4992702;28;20416;-70
2022/10/07 09:58:05;;;;;;;2.60;2.10;;;20.90;40.50;;;;;;4992951;28;20471;-70
2022/10/07 10:00:39;;;;;;;5.80;2.73;;;21.00;40.30;;;;;;4992482;28;20848;-70
2022/10/07 10:03:06;;;;;;;1.57;1.50;;;20.90;39.20;;;;;;4992594;28;20455;-70
2022/10/07 10:05:34;;;;;;;3.43;2.43;;;20.80;39.60;;;;;;4992828;28;20401;-70
2022/10/07 10:08:21;;;;;;;4.43;2.47;;;20.90;40.20;;;;;;4992953;28;20508;-71
2022/10/07 10:10:55;;;;;;;3.60;1.67;;;20.90;42.10;;;;;;4992061;28;20401;-69
2022/10/07 10:13:28;;;;;;;1.90;1.90;;;20.90;39.50;;;;;;4991127;28;20436;-70
2022/10/07 10:15:54;;;;;;;2.50;2.03;;;21.10;39.60;;;;;;4992314;28;20484;-70
2022/10/07 10:18:35;;;;;;;2.63;1.93;;;21.20;39.50;;;;;;4992608;28;20420;-70
2022/10/07 10:21:19;;;;;;;2.83;1.67;;;21.40;38.40;;;;;;4992196;28;20508;-70
2022/10/07 10:23:47;;;;;;;2.33;1.80;;;21.20;38.10;;;;;;4991725;28;20460;-69
2022/10/07 10:26:35;;;;;;;2.80;1.90;;;21.10;39.10;;;;;;4992542;28;20940;-69
2022/10/07 10:29:18;;;;;;;4.27;2.07;;;21.20;38.40;;;;;;4992424;28;20905;-69
2022/10/07 10:32:01;;;;;;;2.80;2.47;;;21.10;39.20;;;;;;4992282;28;20425;-69
2022/10/07 10:34:59;;;;;;;2.30;1.90;;;21.20;39.90;;;;;;4992240;28;20541;-68
2022/10/07 10:37:40;;;;;;;2.20;2.03;;;21.30;37.90;;;;;;4969212;28;20822;-71
2022/10/07 10:40:21;;;;;;;2.03;1.80;;;21.40;37.90;;;;;;4992100;28;20390;-70
2022/10/07 10:42:53;;;;;;;3.10;2.07;;;20.90;38.40;;;;;;4991671;28;20420;-69
2022/10/07 10:45:40;;;;;;;2.87;2.20;;;20.80;40.30;;;;;;4991772;28;20436;-68
2022/10/07 10:48:26;;;;;;;5.13;2.43;;;21.10;39.30;;;;;;4992549;28;20401;-69
2022/10/07 10:51:12;;;;;;;4.10;2.17;;;21.20;38.60;;;;;;4991769;28;20893;-69
2022/10/07 10:53:59;;;;;;;4.43;2.10;;;21.20;38.60;;;;;;4961476;28;20435;-69
2022/10/07 10:56:49;;;;;;;2.77;1.90;;;21.30;38.00;;;;;;4991940;28;20483;-69
2022/10/07 10:59:21;;;;;;;5.80;2.90;;;21.00;38.50;;;;;;4992046;28;20427;-69
2022/10/07 11:02:18;;;;;;;2.33;2.10;;;20.80;39.50;;;;;;4991583;28;20439;-70
2022/10/07 11:04:56;;;;;;;2.37;2.07;;;20.70;39.90;;;;;;4968762;28;20572;-70
2022/10/07 11:07:33;;;;;;;1.80;1.80;;;20.60;40.30;;;;;;4991781;28;20448;-69
2022/10/07 11:10:10;;;;;;;5.87;2.27;;;19.80;42.40;;;;;;4992717;28;20412;-69
2022/10/07 11:12:40;;;;;;;5.10;2.00;;;20.10;41.70;;;;;;4991662;28;20403;-69
2022/10/07 11:15:30;;;;;;;2.10;1.97;;;19.80;42.20;;;;;;4992073;28;20411;-70
2022/10/07 11:18:01;;;;;;;4.53;2.13;;;20.30;41.90;;;;;;4991879;28;20430;-70
2022/10/07 11:20:32;;;;;;;3.33;2.20;;;20.60;41.10;;;;;;4991960;28;20888;-70
2022/10/07 11:23:01;;;;;;;2.40;1.80;;;20.90;40.30;;;;;;4991507;28;20496;-70
2022/10/07 11:25:43;;;;;;;2.37;1.87;;;21.20;38.90;;;;;;4991516;28;20404;-70
2022/10/07 11:28:29;;;;;;;4.57;2.37;;;21.10;39.30;;;;;;4991905;28;20394;-70
2022/10/07 11:31:10;;;;;;;1.90;1.60;;;20.80;40.60;;;;;;4991400;28;20528;-70
2022/10/07 11:33:47;;;;;;;3.00;2.50;;;21.00;40.70;;;;;;4991631;28;20416;-70
2022/10/07 11:36:17;;;;;;;1.80;1.77;;;21.20;39.70;;;;;;4991280;28;20430;-69
2022/10/07 11:38:45;;;;;;;2.03;1.73;;;20.80;40.60;;;;;;4991723;28;20414;-70
2022/10/07 11:41:34;;;;;;;2.17;1.97;;;20.80;40.30;;;;;;4991135;28;20401;-69
2022/10/07 11:44:07;;;;;;;2.47;2.17;;;21.00;38.90;;;;;;4991356;28;20548;-69
2022/10/07 11:46:38;;;;;;;2.93;1.90;;;21.00;39.90;;;;;;4991565;28;20430;-69
2022/10/07 11:49:09;;;;;;;1.80;1.70;;;21.00;40.50;;;;;;4991794;28;20391;-70
2022/10/07 11:51:53;;;;;;;3.20;2.00;;;21.20;40.90;;;;;;4991005;28;20888;-69
2022/10/07 11:54:22;;;;;;;2.10;1.83;;;21.40;38.60;;;;;;4991526;28;20416;-70
2022/10/07 11:56:53;;;;;;;1.70;1.50;;;21.50;39.40;;;;;;4991833;28;20473;-70
2022/10/07 11:59:49;;;;;;;3.63;1.93;;;21.40;38.20;;;;;;4994982;28;20438;-70
2022/10/07 12:02:26;;;;;;;1.93;1.70;;;21.60;40.30;;;;;;4994839;28;20405;-70
2022/10/07 12:04:53;;;;;;;2.67;1.50;;;21.60;38.40;;;;;;4994469;28;20960;-70
2022/10/07 12:07:31;;;;;;;3.03;2.43;;;21.70;38.70;;;;;;4994964;28;20435;-70
2022/10/07 12:10:08;;;;;;;1.67;1.63;;;21.70;38.10;;;;;;4994895;28;20411;-70
2022/10/07 12:12:43;;;;;;;1.80;1.67;;;21.90;38.20;;;;;;4994805;28;20413;-70
2022/10/07 12:15:32;;;;;;;1.50;1.50;;;21.90;37.90;;;;;;4994505;28;20408;-70
2022/10/07 12:18:03;;;;;;;10.83;2.53;;;22.20;36.70;;;;;;4994674;28;20452;-70
2022/10/07 12:20:32;;;;;;;1.63;1.60;;;22.00;37.10;;;;;;4994683;28;20975;-69
2022/10/07 12:23:17;;;;;;;1.80;1.70;;;21.60;38.30;;;;;;4994169;28;20850;-69
2022/10/07 12:25:55;;;;;;;1.60;1.57;;;21.80;38.30;;;;;;4994409;28;20402;-69
2022/10/07 12:28:40;;;;;;;2.30;2.00;;;21.80;38.70;;;;;;4994856;28;20491;-69
2022/10/07 12:31:15;;;;;;;1.60;1.57;;;21.60;38.10;;;;;;4994383;28;20779;-69
2022/10/07 12:33:43;;;;;;;1.77;1.73;;;22.10;37.30;;;;;;4994057;28;20408;-69
2022/10/07 12:36:40;;;;;;;3.00;2.37;;;22.00;37.20;;;;;;4994353;28;20959;-70
2022/10/07 12:39:11;;;;;;;2.80;1.83;;;21.70;38.60;;;;;;4993436;28;20471;-70
2022/10/07 12:41:41;;;;;;;1.73;1.73;;;21.80;41.00;;;;;;4993815;28;20401;-69
2022/10/07 12:44:07;;;;;;;3.83;2.20;;;21.90;39.20;;;;;;4994027;28;20830;-69
2022/10/07 12:46:41;;;;;;;1.50;1.50;;;22.50;37.40;;;;;;4994014;28;20433;-69
2022/10/07 12:49:35;;;;;;;1.80;1.50;;;22.70;36.50;;;;;;4994514;28;20174;-69
2022/10/07 12:52:13;;;;;;;2.00;1.90;;;22.90;35.30;;;;;;4993911;28;20390;-70
2022/10/07 12:54:53;;;;;;;2.60;1.97;;;23.10;36.10;;;;;;4993930;28;20402;-69
2022/10/07 12:57:22;;;;;;;2.10;1.77;;;23.10;36.20;;;;;;4993982;28;20456;-69
2022/10/07 13:00:23;;;;;;;2.80;1.87;;;23.10;35.20;;;;;;4994080;28;20421;-69
2022/10/07 13:03:20;;;;;;;1.83;1.67;;;22.80;36.30;;;;;;4993466;28;20422;-69
2022/10/07 13:06:21;;;;;;;3.57;1.87;;;22.50;37.10;;;;;;4965457;28;20423;-70
2022/10/07 13:09:18;;;;;;;2.13;1.80;;;23.00;37.00;;;;;;4992968;28;20406;-70
2022/10/07 13:12:05;;;;;;;1.77;1.70;;;23.30;35.30;;;;;;4993259;28;20793;-69